Seabrook, SC (29914)

1:09 AM EST on March 02, 2015 (GMT -0500)
Beaufort Marine Corps Air Station | Change Station
CLOSE
Current Station
Airport
Location: Beaufort MCAS,
Elevation: 39 ft
Nearby Weather Stations

Elev 39 ft 32.48 °N, 80.72 °W | Updated 13 minutes ago

Fog
Fog
45 °F
Feels Like 45 °F
N
0
Wind Variable Wind from North

Today
High -- | Low -- °F
--% Chance of Precip.
Yesterday
High -- | Low -- °F
Precip. -- in
6:49 AM 6:21 PM
Waxing Gibbous, 89% visible
Pressure 30.35 in
Visibility 0.5 miles
Clouds
Dew Point 44 °F
Humidity 97%
Rainfall 0.00 in
Snow Depth Not available.
UV Not available.
Pollen 2.50 out of 12
Air Quality Not available.
Flu Activity Not available.
METAR KNBC 020556Z AUTO 00000KT 1/2SM FG VV002 07/07 A3035 RMK AO2 SLP278 T00720067 10078 20072 56015 $

More Conditions Fewer Conditions

Pressure 30.35 in
Visibility 0.5 miles
Clouds
Dew Point 44 °F
Humidity 97%
Rainfall 0.00 in
Snow Depth Not available.
UV Not available.
Pollen 2.50 out of 12
Air Quality Not available.
Flu Activity Not available.
METAR KNBC 020556Z AUTO 00000KT 1/2SM FG VV002 07/07 A3035 RMK AO2 SLP278 T00720067 10078 20072 56015 $

More Conditions Fewer Conditions

10-Day Weather Forecast

Almanac

Astronomy

Mar. 02, 2015 Rise Set
Actual Time
Civil Twilight
Nautical Twilight
Astronomical Twilight
Moon
Length of Visible Light
Length of Day
Tomorrow will be .
, % of the Moon is Illuminated

Today's Extremes

State Highs State Lows

Community

WunderPhotos

Upload Photos

1,801,738 photos uploaded!

WunderBlogs® & News

Nearby

Air Quality

  Air Quality AQ Index Pollutant
Not available.

Snow Depth

Station Depth Elevation

Earthquake Activity

City Distance Mag. Time & Date
Minimum magnitude displayed is 2.5.

Coastal Water Temperatures

Place Temperature

Nearby Weather Stations